sensor_id;sensor_type;location;lat;lon;timestamp;temperature;humidity
7445;DHT22;3764;48.126;11.594;2022-10-31T00:02:12;14.10;99.90
7445;DHT22;3764;48.126;11.594;2022-10-31T00:04:39;14.10;99.90
7445;DHT22;3764;48.126;11.594;2022-10-31T00:07:06;14.00;99.90
7445;DHT22;3764;48.126;11.594;2022-10-31T00:09:33;14.00;99.90
7445;DHT22;3764;48.126;11.594;2022-10-31T00:12:00;14.10;99.90
7445;DHT22;3764;48.126;11.594;2022-10-31T00:14:29;14.00;99.90
7445;DHT22;3764;48.126;11.594;2022-10-31T00:16:56;14.00;99.90
7445;DHT22;3764;48.126;11.594;2022-10-31T00:19:23;13.90;99.90
7445;DHT22;3764;48.126;11.594;2022-10-31T00:21:51;13.80;99.90
7445;DHT22;3764;48.126;11.594;2022-10-31T00:24:18;13.70;99.90
7445;DHT22;3764;48.126;11.594;2022-10-31T00:26:46;13.60;99.90
7445;DHT22;3764;48.126;11.594;2022-10-31T00:29:13;13.60;99.90
7445;DHT22;3764;48.126;11.594;2022-10-31T00:31:41;13.60;99.90
7445;DHT22;3764;48.126;11.594;2022-10-31T00:34:09;13.50;99.90
7445;DHT22;3764;48.126;11.594;2022-10-31T00:36:36;13.50;99.90
7445;DHT22;3764;48.126;11.594;2022-10-31T00:39:03;13.40;99.90
7445;DHT22;3764;48.126;11.594;2022-10-31T00:41:30;13.40;99.90
7445;DHT22;3764;48.126;11.594;2022-10-31T00:44:01;13.30;99.90
7445;DHT22;3764;48.126;11.594;2022-10-31T00:46:28;13.20;99.90
7445;DHT22;3764;48.126;11.594;2022-10-31T00:48:57;13.20;99.90
7445;DHT22;3764;48.126;11.594;2022-10-31T00:51:24;13.20;99.90
7445;DHT22;3764;48.126;11.594;2022-10-31T00:53:51;13.30;99.90
7445;DHT22;3764;48.126;11.594;2022-10-31T00:56:19;13.30;99.90
7445;DHT22;3764;48.126;11.594;2022-10-31T00:58:46;13.40;99.90
7445;DHT22;3764;48.126;11.594;2022-10-31T01:01:13;13.40;99.90
7445;DHT22;3764;48.126;11.594;2022-10-31T01:03:40;13.50;99.90
7445;DHT22;3764;48.126;11.594;2022-10-31T01:06:12;13.50;99.90
7445;DHT22;3764;48.126;11.594;2022-10-31T01:08:40;13.50;99.90
7445;DHT22;3764;48.126;11.594;2022-10-31T01:11:10;13.40;99.90
7445;DHT22;3764;48.126;11.594;2022-10-31T01:13:37;13.30;99.90
7445;DHT22;3764;48.126;11.594;2022-10-31T01:16:06;13.30;99.90
7445;DHT22;3764;48.126;11.594;2022-10-31T01:18:34;13.30;99.90
7445;DHT22;3764;48.126;11.594;2022-10-31T01:21:03;13.30;99.90
7445;DHT22;3764;48.126;11.594;2022-10-31T01:23:32;13.20;99.90
7445;DHT22;3764;48.126;11.594;2022-10-31T01:26:05;13.20;99.90
7445;DHT22;3764;48.126;11.594;2022-10-31T01:28:33;13.30;99.90
7445;DHT22;3764;48.126;11.594;2022-10-31T01:31:02;13.30;99.90
7445;DHT22;3764;48.126;11.594;2022-10-31T01:33:29;13.30;99.90
7445;DHT22;3764;48.126;11.594;2022-10-31T01:35:56;13.40;99.90
7445;DHT22;3764;48.126;11.594;2022-10-31T01:38:23;13.40;99.90
7445;DHT22;3764;48.126;11.594;2022-10-31T01:40:52;13.30;99.90
7445;DHT22;3764;48.126;11.594;2022-10-31T01:43:19;13.30;99.90
7445;DHT22;3764;48.126;11.594;2022-10-31T01:45:51;13.30;99.90
7445;DHT22;3764;48.126;11.594;2022-10-31T01:48:21;13.30;99.90
7445;DHT22;3764;48.126;11.594;2022-10-31T01:50:52;13.30;99.90
7445;DHT22;3764;48.126;11.594;2022-10-31T01:53:20;13.30;99.90
7445;DHT22;3764;48.126;11.594;2022-10-31T01:55:48;13.40;99.90
7445;DHT22;3764;48.126;11.594;2022-10-31T01:58:20;13.40;99.90
7445;DHT22;3764;48.126;11.594;2022-10-31T02:00:50;13.40;99.90
7445;DHT22;3764;48.126;11.594;2022-10-31T02:03:22;13.50;99.90
7445;DHT22;3764;48.126;11.594;2022-10-31T02:05:49;13.40;99.90
7445;DHT22;3764;48.126;11.594;2022-10-31T02:08:20;13.40;99.90
7445;DHT22;3764;48.126;11.594;2022-10-31T02:10:49;13.40;99.90
7445;DHT22;3764;48.126;11.594;2022-10-31T02:13:19;13.50;99.90
7445;DHT22;3764;48.126;11.594;2022-10-31T02:15:49;13.50;99.90
7445;DHT22;3764;48.126;11.594;2022-10-31T02:18:17;13.50;99.90
7445;DHT22;3764;48.126;11.594;2022-10-31T02:20:54;13.50;99.90
7445;DHT22;3764;48.126;11.594;2022-10-31T02:26:57;13.50;99.90
7445;DHT22;3764;48.126;11.594;2022-10-31T02:35:40;13.40;99.90
7445;DHT22;3764;48.126;11.594;2022-10-31T02:38:14;13.40;99.90
7445;DHT22;3764;48.126;11.594;2022-10-31T02:40:53;13.40;99.90
7445;DHT22;3764;48.126;11.594;2022-10-31T02:43:29;13.40;99.90
7445;DHT22;3764;48.126;11.594;2022-10-31T02:46:00;13.50;99.90
7445;DHT22;3764;48.126;11.594;2022-10-31T02:48:33;13.40;99.90
7445;DHT22;3764;48.126;11.594;2022-10-31T02:51:03;13.40;99.90
7445;DHT22;3764;48.126;11.594;2022-10-31T02:53:32;13.40;99.90
7445;DHT22;3764;48.126;11.594;2022-10-31T02:56:02;13.40;99.90
7445;DHT22;3764;48.126;11.594;2022-10-31T02:58:33;13.40;99.90
7445;DHT22;3764;48.126;11.594;2022-10-31T03:01:23;13.30;99.90
7445;DHT22;3764;48.126;11.594;2022-10-31T03:04:06;13.40;99.90
7445;DHT22;3764;48.126;11.594;2022-10-31T03:06:43;13.40;99.90
7445;DHT22;3764;48.126;11.594;2022-10-31T03:09:16;13.40;99.90
7445;DHT22;3764;48.126;11.594;2022-10-31T03:11:58;13.30;99.90
7445;DHT22;3764;48.126;11.594;2022-10-31T03:14:31;13.30;99.90
7445;DHT22;3764;48.126;11.594;2022-10-31T03:17:06;13.40;99.90
7445;DHT22;3764;48.126;11.594;2022-10-31T03:19:41;13.30;99.90
7445;DHT22;3764;48.126;11.594;2022-10-31T03:22:15;13.30;99.90
7445;DHT22;3764;48.126;11.594;2022-10-31T03:24:43;13.30;99.90
7445;DHT22;3764;48.126;11.594;2022-10-31T03:27:13;13.20;99.90
7445;DHT22;3764;48.126;11.594;2022-10-31T03:29:42;13.10;99.90
7445;DHT22;3764;48.126;11.594;2022-10-31T03:32:13;13.00;99.90
7445;DHT22;3764;48.126;11.594;2022-10-31T03:34:44;13.00;99.90
7445;DHT22;3764;48.126;11.594;2022-10-31T03:37:14;13.10;99.90
7445;DHT22;3764;48.126;11.594;2022-10-31T03:39:43;13.10;99.90
7445;DHT22;3764;48.126;11.594;2022-10-31T03:42:15;13.10;99.90
7445;DHT22;3764;48.126;11.594;2022-10-31T03:44:46;13.10;99.90
7445;DHT22;3764;48.126;11.594;2022-10-31T03:47:14;13.20;99.90
7445;DHT22;3764;48.126;11.594;2022-10-31T03:49:43;13.20;99.90
7445;DHT22;3764;48.126;11.594;2022-10-31T03:52:15;13.10;99.90
7445;DHT22;3764;48.126;11.594;2022-10-31T03:54:46;13.10;99.90
7445;DHT22;3764;48.126;11.594;2022-10-31T03:57:16;13.10;99.90
7445;DHT22;3764;48.126;11.594;2022-10-31T03:59:47;13.10;99.90
7445;DHT22;3764;48.126;11.594;2022-10-31T04:02:18;13.10;99.90
7445;DHT22;3764;48.126;11.594;2022-10-31T04:04:49;13.10;99.90
7445;DHT22;3764;48.126;11.594;2022-10-31T04:07:16;13.10;99.90
7445;DHT22;3764;48.126;11.594;2022-10-31T04:09:45;13.10;99.90
7445;DHT22;3764;48.126;11.594;2022-10-31T04:12:14;13.00;99.90
7445;DHT22;3764;48.126;11.594;2022-10-31T04:14:45;12.90;99.90
7445;DHT22;3764;48.126;11.594;2022-10-31T04:17:14;12.90;99.90
7445;DHT22;3764;48.126;11.594;2022-10-31T04:19:42;12.80;99.90
7445;DHT22;3764;48.126;11.594;2022-10-31T04:22:11;12.70;99.90
7445;DHT22;3764;48.126;11.594;2022-10-31T04:24:40;12.60;99.90
7445;DHT22;3764;48.126;11.594;2022-10-31T04:27:07;12.60;99.90
7445;DHT22;3764;48.126;11.594;2022-10-31T04:29:34;12.60;99.90
7445;DHT22;3764;48.126;11.594;2022-10-31T04:32:01;12.60;99.90
7445;DHT22;3764;48.126;11.594;2022-10-31T04:34:28;12.60;99.90
7445;DHT22;3764;48.126;11.594;2022-10-31T04:36:55;12.70;99.90
7445;DHT22;3764;48.126;11.594;2022-10-31T04:39:24;12.70;99.90
7445;DHT22;3764;48.126;11.594;2022-10-31T04:41:51;12.70;99.90
7445;DHT22;3764;48.126;11.594;2022-10-31T04:44:18;12.80;99.90
7445;DHT22;3764;48.126;11.594;2022-10-31T04:46:45;12.80;99.90
7445;DHT22;3764;48.126;11.594;2022-10-31T04:49:12;12.80;99.90
7445;DHT22;3764;48.126;11.594;2022-10-31T04:51:39;12.80;99.90
7445;DHT22;3764;48.126;11.594;2022-10-31T04:54:06;12.70;99.90
7445;DHT22;3764;48.126;11.594;2022-10-31T04:56:35;12.70;99.90
7445;DHT22;3764;48.126;11.594;2022-10-31T04:59:02;12.70;99.90
7445;DHT22;3764;48.126;11.594;2022-10-31T05:01:29;12.70;99.90
7445;DHT22;3764;48.126;11.594;2022-10-31T05:03:56;12.70;99.90
7445;DHT22;3764;48.126;11.594;2022-10-31T05:06:24;12.70;99.90
7445;DHT22;3764;48.126;11.594;2022-10-31T05:08:57;12.70;99.90
7445;DHT22;3764;48.126;11.594;2022-10-31T05:11:49;12.70;99.90
7445;DHT22;3764;48.126;11.594;2022-10-31T05:14:25;12.70;99.90
7445;DHT22;3764;48.126;11.594;2022-10-31T05:17:12;12.70;99.90
7445;DHT22;3764;48.126;11.594;2022-10-31T05:23:32;12.70;99.90
7445;DHT22;3764;48.126;11.594;2022-10-31T05:26:19;12.70;99.90
7445;DHT22;3764;48.126;11.594;2022-10-31T05:28:49;12.60;99.90
7445;DHT22;3764;48.126;11.594;2022-10-31T05:31:16;12.60;99.90
7445;DHT22;3764;48.126;11.594;2022-10-31T05:33:49;12.50;99.90
7445;DHT22;3764;48.126;11.594;2022-10-31T05:36:22;12.50;99.90
7445;DHT22;3764;48.126;11.594;2022-10-31T05:38:49;12.50;99.90
7445;DHT22;3764;48.126;11.594;2022-10-31T05:41:16;12.40;99.90
7445;DHT22;3764;48.126;11.594;2022-10-31T05:43:44;12.30;99.90
7445;DHT22;3764;48.126;11.594;2022-10-31T05:46:13;12.20;99.90
7445;DHT22;3764;48.126;11.594;2022-10-31T05:48:40;11.90;99.90
7445;DHT22;3764;48.126;11.594;2022-10-31T05:51:07;11.80;99.90
7445;DHT22;3764;48.126;11.594;2022-10-31T05:53:34;11.80;99.90
7445;DHT22;3764;48.126;11.594;2022-10-31T05:56:01;11.90;99.90
7445;DHT22;3764;48.126;11.594;2022-10-31T05:58:28;12.00;99.90
7445;DHT22;3764;48.126;11.594;2022-10-31T06:00:55;12.10;99.90
7445;DHT22;3764;48.126;11.594;2022-10-31T06:03:23;12.10;99.90
7445;DHT22;3764;48.126;11.594;2022-10-31T06:05:50;12.10;99.90
7445;DHT22;3764;48.126;11.594;2022-10-31T06:08:17;12.00;99.90
7445;DHT22;3764;48.126;11.594;2022-10-31T06:10:44;12.00;99.90
7445;DHT22;3764;48.126;11.594;2022-10-31T06:13:11;12.00;99.90
7445;DHT22;3764;48.126;11.594;2022-10-31T06:15:38;12.10;99.90
7445;DHT22;3764;48.126;11.594;2022-10-31T06:18:06;12.10;99.90
7445;DHT22;3764;48.126;11.594;2022-10-31T06:20:34;12.00;99.90
7445;DHT22;3764;48.126;11.594;2022-10-31T06:23:02;12.00;99.90
7445;DHT22;3764;48.126;11.594;2022-10-31T06:25:29;11.90;99.90
7445;DHT22;3764;48.126;11.594;2022-10-31T06:27:56;11.80;99.90
7445;DHT22;3764;48.126;11.594;2022-10-31T06:30:23;11.70;99.90
7445;DHT22;3764;48.126;11.594;2022-10-31T06:32:50;11.80;99.90
7445;DHT22;3764;48.126;11.594;2022-10-31T06:35:17;11.70;99.90
7445;DHT22;3764;48.126;11.594;2022-10-31T06:37:52;11.70;99.90
7445;DHT22;3764;48.126;11.594;2022-10-31T06:40:19;11.70;99.90
7445;DHT22;3764;48.126;11.594;2022-10-31T06:42:46;11.70;99.90
7445;DHT22;3764;48.126;11.594;2022-10-31T06:45:13;11.70;99.90
7445;DHT22;3764;48.126;11.594;2022-10-31T06:47:40;11.80;99.90
7445;DHT22;3764;48.126;11.594;2022-10-31T06:50:08;11.80;99.90
7445;DHT22;3764;48.126;11.594;2022-10-31T06:52:35;11.80;99.90
7445;DHT22;3764;48.126;11.594;2022-10-31T06:55:04;11.90;99.90
7445;DHT22;3764;48.126;11.594;2022-10-31T06:57:31;12.00;99.90
7445;DHT22;3764;48.126;11.594;2022-10-31T06:59:58;12.00;99.90
7445;DHT22;3764;48.126;11.594;2022-10-31T07:02:25;12.00;99.90
7445;DHT22;3764;48.126;11.594;2022-10-31T07:04:52;12.10;99.90
7445;DHT22;3764;48.126;11.594;2022-10-31T07:07:19;12.10;99.90
7445;DHT22;3764;48.126;11.594;2022-10-31T07:09:47;12.20;99.90
7445;DHT22;3764;48.126;11.594;2022-10-31T07:12:17;12.20;99.90
7445;DHT22;3764;48.126;11.594;2022-10-31T07:14:44;12.20;99.90
7445;DHT22;3764;48.126;11.594;2022-10-31T07:17:11;12.20;99.90
7445;DHT22;3764;48.126;11.594;2022-10-31T07:19:38;12.20;99.90
7445;DHT22;3764;48.126;11.594;2022-10-31T07:22:05;12.20;99.90
7445;DHT22;3764;48.126;11.594;2022-10-31T07:24:32;12.20;99.90
7445;DHT22;3764;48.126;11.594;2022-10-31T07:26:59;12.30;99.90
7445;DHT22;3764;48.126;11.594;2022-10-31T07:29:27;12.30;99.90
7445;DHT22;3764;48.126;11.594;2022-10-31T07:31:54;12.30;99.90
7445;DHT22;3764;48.126;11.594;2022-10-31T07:34:21;12.40;99.90
7445;DHT22;3764;48.126;11.594;2022-10-31T07:36:50;12.40;99.90
7445;DHT22;3764;48.126;11.594;2022-10-31T07:39:17;12.40;99.90
7445;DHT22;3764;48.126;11.594;2022-10-31T07:41:44;12.50;99.90
7445;DHT22;3764;48.126;11.594;2022-10-31T07:44:11;12.50;99.90
7445;DHT22;3764;48.126;11.594;2022-10-31T07:46:40;12.50;99.90
7445;DHT22;3764;48.126;11.594;2022-10-31T07:49:07;12.50;99.90
7445;DHT22;3764;48.126;11.594;2022-10-31T07:51:34;12.50;99.90
7445;DHT22;3764;48.126;11.594;2022-10-31T07:54:01;12.50;99.90
7445;DHT22;3764;48.126;11.594;2022-10-31T07:56:28;12.50;99.90
7445;DHT22;3764;48.126;11.594;2022-10-31T07:58:55;12.60;99.90
7445;DHT22;3764;48.126;11.594;2022-10-31T08:01:22;12.60;99.90
7445;DHT22;3764;48.126;11.594;2022-10-31T08:03:51;12.60;99.90
7445;DHT22;3764;48.126;11.594;2022-10-31T08:06:18;12.70;99.90
7445;DHT22;3764;48.126;11.594;2022-10-31T08:08:45;12.70;99.90
7445;DHT22;3764;48.126;11.594;2022-10-31T08:11:12;12.70;99.90
7445;DHT22;3764;48.126;11.594;2022-10-31T08:13:39;12.70;99.90
7445;DHT22;3764;48.126;11.594;2022-10-31T08:16:06;12.70;99.90
7445;DHT22;3764;48.126;11.594;2022-10-31T08:18:33;12.70;99.90
7445;DHT22;3764;48.126;11.594;2022-10-31T08:21:04;12.80;99.90
7445;DHT22;3764;48.126;11.594;2022-10-31T08:23:31;12.80;99.90
7445;DHT22;3764;48.126;11.594;2022-10-31T08:25:58;12.80;99.90
7445;DHT22;3764;48.126;11.594;2022-10-31T08:28:26;12.90;99.90
7445;DHT22;3764;48.126;11.594;2022-10-31T08:30:52;12.90;99.90
7445;DHT22;3764;48.126;11.594;2022-10-31T08:33:20;13.00;99.90
7445;DHT22;3764;48.126;11.594;2022-10-31T08:35:47;13.00;99.90
7445;DHT22;3764;48.126;11.594;2022-10-31T08:38:16;13.00;99.90
7445;DHT22;3764;48.126;11.594;2022-10-31T08:40:47;13.10;99.90
7445;DHT22;3764;48.126;11.594;2022-10-31T08:43:16;13.10;99.90
7445;DHT22;3764;48.126;11.594;2022-10-31T08:45:44;13.10;99.90
7445;DHT22;3764;48.126;11.594;2022-10-31T08:48:15;13.20;99.90
7445;DHT22;3764;48.126;11.594;2022-10-31T08:50:43;13.20;99.90
7445;DHT22;3764;48.126;11.594;2022-10-31T08:53:12;13.30;99.90
7445;DHT22;3764;48.126;11.594;2022-10-31T08:55:42;13.30;99.90
7445;DHT22;3764;48.126;11.594;2022-10-31T08:58:10;13.40;99.90
7445;DHT22;3764;48.126;11.594;2022-10-31T09:00:38;13.40;99.90
7445;DHT22;3764;48.126;11.594;2022-10-31T09:03:08;13.50;99.90
7445;DHT22;3764;48.126;11.594;2022-10-31T09:05:35;13.50;99.90
7445;DHT22;3764;48.126;11.594;2022-10-31T09:08:03;13.60;99.90
7445;DHT22;3764;48.126;11.594;2022-10-31T09:10:32;13.60;99.90
7445;DHT22;3764;48.126;11.594;2022-10-31T09:13:04;13.70;99.90
7445;DHT22;3764;48.126;11.594;2022-10-31T09:15:32;13.70;99.90
7445;DHT22;3764;48.126;11.594;2022-10-31T09:18:00;13.80;99.90
7445;DHT22;3764;48.126;11.594;2022-10-31T09:20:27;13.80;99.90
7445;DHT22;3764;48.126;11.594;2022-10-31T09:22:58;13.90;99.90
7445;DHT22;3764;48.126;11.594;2022-10-31T09:25:26;13.90;99.90
7445;DHT22;3764;48.126;11.594;2022-10-31T09:27:56;14.00;99.90
7445;DHT22;3764;48.126;11.594;2022-10-31T09:30:25;14.10;99.90
7445;DHT22;3764;48.126;11.594;2022-10-31T09:32:55;14.10;99.90
7445;DHT22;3764;48.126;11.594;2022-10-31T09:35:22;14.10;99.90
7445;DHT22;3764;48.126;11.594;2022-10-31T09:37:54;14.20;99.90
7445;DHT22;3764;48.126;11.594;2022-10-31T09:40:22;14.30;99.90
7445;DHT22;3764;48.126;11.594;2022-10-31T09:42:58;14.30;99.90
7445;DHT22;3764;48.126;11.594;2022-10-31T09:45:36;14.30;99.90
7445;DHT22;3764;48.126;11.594;2022-10-31T09:51:10;14.50;99.90
7445;DHT22;3764;48.126;11.594;2022-10-31T09:53:40;14.60;99.90
7445;DHT22;3764;48.126;11.594;2022-10-31T09:56:13;14.70;99.90
7445;DHT22;3764;48.126;11.594;2022-10-31T09:58:44;14.70;99.90
7445;DHT22;3764;48.126;11.594;2022-10-31T10:01:38;14.80;99.90
7445;DHT22;3764;48.126;11.594;2022-10-31T10:04:28;14.90;99.90
7445;DHT22;3764;48.126;11.594;2022-10-31T10:06:57;15.00;99.90
7445;DHT22;3764;48.126;11.594;2022-10-31T10:09:26;15.10;99.90
7445;DHT22;3764;48.126;11.594;2022-10-31T10:12:03;15.10;99.90
7445;DHT22;3764;48.126;11.594;2022-10-31T10:14:46;15.20;99.90
7445;DHT22;3764;48.126;11.594;2022-10-31T10:17:26;15.20;99.90
7445;DHT22;3764;48.126;11.594;2022-10-31T10:20:17;15.30;99.90
7445;DHT22;3764;48.126;11.594;2022-10-31T10:22:52;15.40;99.90
7445;DHT22;3764;48.126;11.594;2022-10-31T10:25:23;15.40;99.90
7445;DHT22;3764;48.126;11.594;2022-10-31T10:28:10;15.50;99.90
7445;DHT22;3764;48.126;11.594;2022-10-31T10:30:43;15.60;99.90
7445;DHT22;3764;48.126;11.594;2022-10-31T10:33:15;15.60;99.90
7445;DHT22;3764;48.126;11.594;2022-10-31T10:35:49;15.70;99.90
7445;DHT22;3764;48.126;11.594;2022-10-31T10:38:21;15.80;99.90
7445;DHT22;3764;48.126;11.594;2022-10-31T10:40:50;15.80;99.90
7445;DHT22;3764;48.126;11.594;2022-10-31T10:43:22;15.90;99.90
7445;DHT22;3764;48.126;11.594;2022-10-31T10:45:54;15.90;99.90
7445;DHT22;3764;48.126;11.594;2022-10-31T10:48:44;16.00;99.90
7445;DHT22;3764;48.126;11.594;2022-10-31T10:51:22;16.10;99.90
7445;DHT22;3764;48.126;11.594;2022-10-31T10:54:04;16.20;99.90
7445;DHT22;3764;48.126;11.594;2022-10-31T10:56:55;16.30;99.90
7445;DHT22;3764;48.126;11.594;2022-10-31T10:59:25;16.40;99.90
7445;DHT22;3764;48.126;11.594;2022-10-31T11:01:53;16.50;99.90
7445;DHT22;3764;48.126;11.594;2022-10-31T11:04:33;16.50;99.90
7445;DHT22;3764;48.126;11.594;2022-10-31T11:07:03;16.50;99.90
7445;DHT22;3764;48.126;11.594;2022-10-31T11:09:31;16.50;99.90
7445;DHT22;3764;48.126;11.594;2022-10-31T11:11:58;16.60;99.90
7445;DHT22;3764;48.126;11.594;2022-10-31T11:14:27;16.60;99.90
7445;DHT22;3764;48.126;11.594;2022-10-31T11:17:06;16.60;99.90
7445;DHT22;3764;48.126;11.594;2022-10-31T11:19:36;16.60;99.90
7445;DHT22;3764;48.126;11.594;2022-10-31T11:22:07;16.70;99.90
7445;DHT22;3764;48.126;11.594;2022-10-31T11:24:39;16.70;99.90
7445;DHT22;3764;48.126;11.594;2022-10-31T11:27:14;16.70;99.90
7445;DHT22;3764;48.126;11.594;2022-10-31T11:29:42;16.80;99.90
7445;DHT22;3764;48.126;11.594;2022-10-31T11:32:22;16.80;99.90
7445;DHT22;3764;48.126;11.594;2022-10-31T11:34:54;16.90;99.90
7445;DHT22;3764;48.126;11.594;2022-10-31T11:37:23;16.90;99.90
7445;DHT22;3764;48.126;11.594;2022-10-31T11:39:53;17.00;99.90
7445;DHT22;3764;48.126;11.594;2022-10-31T11:42:22;17.00;99.90
7445;DHT22;3764;48.126;11.594;2022-10-31T11:44:51;17.10;99.90
7445;DHT22;3764;48.126;11.594;2022-10-31T11:47:26;17.20;99.90
7445;DHT22;3764;48.126;11.594;2022-10-31T11:49:56;17.30;99.90
7445;DHT22;3764;48.126;11.594;2022-10-31T11:52:27;17.40;99.90
7445;DHT22;3764;48.126;11.594;2022-10-31T11:54:57;17.40;99.90
7445;DHT22;3764;48.126;11.594;2022-10-31T11:57:28;17.40;99.90
7445;DHT22;3764;48.126;11.594;2022-10-31T11:59:57;17.40;99.90
7445;DHT22;3764;48.126;11.594;2022-10-31T12:02:25;17.50;99.90
7445;DHT22;3764;48.126;11.594;2022-10-31T12:05:02;17.60;99.90
7445;DHT22;3764;48.126;11.594;2022-10-31T12:07:30;17.60;99.90
7445;DHT22;3764;48.126;11.594;2022-10-31T12:09:57;17.60;99.90
7445;DHT22;3764;48.126;11.594;2022-10-31T12:12:49;17.60;99.90
7445;DHT22;3764;48.126;11.594;2022-10-31T12:15:29;17.60;99.90
7445;DHT22;3764;48.126;11.594;2022-10-31T12:18:06;17.60;99.90
7445;DHT22;3764;48.126;11.594;2022-10-31T12:20:47;17.50;99.90
7445;DHT22;3764;48.126;11.594;2022-10-31T12:23:25;17.50;99.90
7445;DHT22;3764;48.126;11.594;2022-10-31T12:26:04;17.50;99.90
7445;DHT22;3764;48.126;11.594;2022-10-31T12:28:58;17.50;99.90
7445;DHT22;3764;48.126;11.594;2022-10-31T12:31:44;17.50;99.90
7445;DHT22;3764;48.126;11.594;2022-10-31T12:34:35;17.40;99.90
7445;DHT22;3764;48.126;11.594;2022-10-31T12:37:12;17.40;99.90
7445;DHT22;3764;48.126;11.594;2022-10-31T12:39:49;17.40;99.90
7445;DHT22;3764;48.126;11.594;2022-10-31T12:42:32;17.40;99.90
7445;DHT22;3764;48.126;11.594;2022-10-31T12:45:33;17.40;99.90
7445;DHT22;3764;48.126;11.594;2022-10-31T12:48:21;17.40;99.90
7445;DHT22;3764;48.126;11.594;2022-10-31T12:50:57;17.40;99.90
7445;DHT22;3764;48.126;11.594;2022-10-31T12:53:47;17.40;99.90
7445;DHT22;3764;48.126;11.594;2022-10-31T12:56:26;17.50;99.90
7445;DHT22;3764;48.126;11.594;2022-10-31T12:59:00;17.50;99.90
7445;DHT22;3764;48.126;11.594;2022-10-31T13:01:33;17.60;99.90
7445;DHT22;3764;48.126;11.594;2022-10-31T13:04:05;17.60;99.90
7445;DHT22;3764;48.126;11.594;2022-10-31T13:06:36;17.70;99.90
7445;DHT22;3764;48.126;11.594;2022-10-31T13:09:08;17.70;99.90
7445;DHT22;3764;48.126;11.594;2022-10-31T13:11:39;17.70;99.90
7445;DHT22;3764;48.126;11.594;2022-10-31T13:14:11;17.70;99.90
7445;DHT22;3764;48.126;11.594;2022-10-31T13:16:42;17.70;99.90
7445;DHT22;3764;48.126;11.594;2022-10-31T13:19:16;17.70;99.90
7445;DHT22;3764;48.126;11.594;2022-10-31T13:21:52;17.80;99.90
7445;DHT22;3764;48.126;11.594;2022-10-31T13:24:30;17.80;99.90
7445;DHT22;3764;48.126;11.594;2022-10-31T13:26:58;17.80;99.90
7445;DHT22;3764;48.126;11.594;2022-10-31T13:29:30;17.80;99.90
7445;DHT22;3764;48.126;11.594;2022-10-31T13:32:00;17.80;99.90
7445;DHT22;3764;48.126;11.594;2022-10-31T13:34:31;17.80;99.90
7445;DHT22;3764;48.126;11.594;2022-10-31T13:37:05;17.80;99.90
7445;DHT22;3764;48.126;11.594;2022-10-31T13:39:48;17.80;99.90
7445;DHT22;3764;48.126;11.594;2022-10-31T13:42:19;17.80;99.90
7445;DHT22;3764;48.126;11.594;2022-10-31T13:44:47;17.80;99.90
7445;DHT22;3764;48.126;11.594;2022-10-31T13:47:25;17.80;99.90
7445;DHT22;3764;48.126;11.594;2022-10-31T13:50:04;17.80;99.90
7445;DHT22;3764;48.126;11.594;2022-10-31T13:52:31;17.70;99.90
7445;DHT22;3764;48.126;11.594;2022-10-31T13:54:59;17.70;99.90
7445;DHT22;3764;48.126;11.594;2022-10-31T13:57:31;17.70;99.90
7445;DHT22;3764;48.126;11.594;2022-10-31T14:00:01;17.70;99.90
7445;DHT22;3764;48.126;11.594;2022-10-31T14:02:30;17.70;99.90
7445;DHT22;3764;48.126;11.594;2022-10-31T14:05:00;17.70;99.90
7445;DHT22;3764;48.126;11.594;2022-10-31T14:07:29;17.70;99.90
7445;DHT22;3764;48.126;11.594;2022-10-31T14:10:02;17.70;99.90
7445;DHT22;3764;48.126;11.594;2022-10-31T14:12:33;17.70;99.90
7445;DHT22;3764;48.126;11.594;2022-10-31T14:15:04;17.70;99.90
7445;DHT22;3764;48.126;11.594;2022-10-31T14:17:39;17.60;99.90
7445;DHT22;3764;48.126;11.594;2022-10-31T14:20:36;17.60;99.90
7445;DHT22;3764;48.126;11.594;2022-10-31T14:23:31;17.60;99.90
7445;DHT22;3764;48.126;11.594;2022-10-31T14:26:21;17.60;99.90
7445;DHT22;3764;48.126;11.594;2022-10-31T14:28:57;17.60;99.90
7445;DHT22;3764;48.126;11.594;2022-10-31T14:31:31;17.60;99.90
7445;DHT22;3764;48.126;11.594;2022-10-31T14:34:01;17.60;99.90
7445;DHT22;3764;48.126;11.594;2022-10-31T14:36:39;17.60;99.90
7445;DHT22;3764;48.126;11.594;2022-10-31T14:39:13;17.60;99.90
7445;DHT22;3764;48.126;11.594;2022-10-31T14:41:54;17.60;99.90
7445;DHT22;3764;48.126;11.594;2022-10-31T14:44:45;17.60;99.90
7445;DHT22;3764;48.126;11.594;2022-10-31T14:47:22;17.60;99.90
7445;DHT22;3764;48.126;11.594;2022-10-31T14:52:48;17.60;99.90
7445;DHT22;3764;48.126;11.594;2022-10-31T14:55:16;17.60;99.90
7445;DHT22;3764;48.126;11.594;2022-10-31T14:57:49;17.60;99.90
7445;DHT22;3764;48.126;11.594;2022-10-31T15:00:20;17.60;99.90
7445;DHT22;3764;48.126;11.594;2022-10-31T15:02:59;17.50;99.90
7445;DHT22;3764;48.126;11.594;2022-10-31T15:05:29;17.50;99.90
7445;DHT22;3764;48.126;11.594;2022-10-31T15:07:57;17.60;99.90
7445;DHT22;3764;48.126;11.594;2022-10-31T15:10:27;17.60;99.90
7445;DHT22;3764;48.126;11.594;2022-10-31T15:13:08;17.60;99.90
7445;DHT22;3764;48.126;11.594;2022-10-31T15:15:36;17.50;99.90
7445;DHT22;3764;48.126;11.594;2022-10-31T15:18:04;17.50;99.90
7445;DHT22;3764;48.126;11.594;2022-10-31T15:20:38;17.50;99.90
7445;DHT22;3764;48.126;11.594;2022-10-31T15:23:09;17.50;99.90
7445;DHT22;3764;48.126;11.594;2022-10-31T15:25:37;17.50;99.90
7445;DHT22;3764;48.126;11.594;2022-10-31T15:28:14;17.50;99.90
7445;DHT22;3764;48.126;11.594;2022-10-31T15:30:50;17.50;99.90
7445;DHT22;3764;48.126;11.594;2022-10-31T15:33:23;17.40;99.90
7445;DHT22;3764;48.126;11.594;2022-10-31T15:35:58;17.40;99.90
7445;DHT22;3764;48.126;11.594;2022-10-31T15:38:26;17.40;99.90
7445;DHT22;3764;48.126;11.594;2022-10-31T15:40:56;17.40;99.90
7445;DHT22;3764;48.126;11.594;2022-10-31T15:43:26;17.40;99.90
7445;DHT22;3764;48.126;11.594;2022-10-31T15:45:54;17.40;99.90
7445;DHT22;3764;48.126;11.594;2022-10-31T15:48:23;17.40;99.90
7445;DHT22;3764;48.126;11.594;2022-10-31T15:50:53;17.30;99.90
7445;DHT22;3764;48.126;11.594;2022-10-31T15:53:25;17.30;99.90
7445;DHT22;3764;48.126;11.594;2022-10-31T15:55:55;17.30;99.90
7445;DHT22;3764;48.126;11.594;2022-10-31T15:58:24;17.30;99.90
7445;DHT22;3764;48.126;11.594;2022-10-31T16:00:59;17.30;99.90
7445;DHT22;3764;48.126;11.594;2022-10-31T16:03:28;17.30;99.90
7445;DHT22;3764;48.126;11.594;2022-10-31T16:05:57;17.20;99.90
7445;DHT22;3764;48.126;11.594;2022-10-31T16:08:34;17.20;99.90
7445;DHT22;3764;48.126;11.594;2022-10-31T16:11:16;17.20;99.90
7445;DHT22;3764;48.126;11.594;2022-10-31T16:13:58;17.10;99.90
7445;DHT22;3764;48.126;11.594;2022-10-31T16:16:26;17.10;99.90
7445;DHT22;3764;48.126;11.594;2022-10-31T16:18:54;17.10;99.90
7445;DHT22;3764;48.126;11.594;2022-10-31T16:23:56;17.00;99.90
7445;DHT22;3764;48.126;11.594;2022-10-31T16:26:25;17.00;99.90
7445;DHT22;3764;48.126;11.594;2022-10-31T16:28:56;17.00;99.90
7445;DHT22;3764;48.126;11.594;2022-10-31T16:31:29;17.00;99.90
7445;DHT22;3764;48.126;11.594;2022-10-31T16:34:05;17.00;99.90